createdAt,value
2022-10-29T00:00:57.004Z,67.74
2022-10-29T00:03:24.703Z,67.33
2022-10-29T00:05:58.787Z,67.59
2022-10-29T00:08:25.974Z,67.61
2022-10-29T00:10:52.550Z,67.71
2022-10-29T00:13:21.598Z,67.81
2022-10-29T00:15:48.142Z,67.83
2022-10-29T00:18:14.696Z,66.98
2022-10-29T00:20:41.188Z,66.83
2022-10-29T00:23:07.700Z,66.03
2022-10-29T00:25:34.222Z,65.80
2022-10-29T00:28:00.746Z,65.00
2022-10-29T00:30:27.298Z,64.63
2022-10-29T00:32:54.012Z,64.25
2022-10-29T00:35:24.121Z,63.34
2022-10-29T00:37:53.063Z,63.08
2022-10-29T00:40:22.714Z,62.29
2022-10-29T00:42:49.291Z,61.72
2022-10-29T00:45:23.399Z,61.36
2022-10-29T00:47:55.517Z,60.58
2022-10-29T00:50:25.536Z,59.50
2022-10-29T00:52:55.264Z,57.51
2022-10-29T00:55:23.899Z,56.90
2022-10-29T00:57:54.995Z,56.86
2022-10-29T01:00:24.502Z,56.43
2022-10-29T01:02:51.174Z,56.72
2022-10-29T01:05:24.547Z,56.59
2022-10-29T01:07:51.237Z,56.88
2022-10-29T01:10:31.822Z,56.54
2022-10-29T01:13:42.915Z,56.22
2022-10-29T01:16:18.688Z,55.75
2022-10-29T01:19:15.499Z,55.91
2022-10-29T01:21:45.388Z,54.98
2022-10-29T01:24:46.144Z,54.94
2022-10-29T01:27:15.688Z,55.27
2022-10-29T01:30:05.741Z,54.71
2022-10-29T01:32:56.166Z,53.75
2022-10-29T01:35:22.862Z,53.23
2022-10-29T01:38:21.585Z,53.71
2022-10-29T01:41:03.284Z,53.81
2022-10-29T01:44:08.943Z,56.56
2022-10-29T01:46:58.232Z,57.45
2022-10-29T01:49:40.300Z,56.78
2022-10-29T01:52:11.318Z,56.42
2022-10-29T01:54:47.835Z,57.30
2022-10-29T01:57:44.011Z,55.66
2022-10-29T02:00:12.050Z,55.73
2022-10-29T02:03:20.669Z,55.02
2022-10-29T02:06:11.325Z,54.36
2022-10-29T02:09:22.204Z,54.27
2022-10-29T02:11:59.014Z,53.14
2022-10-29T02:14:35.276Z,52.87
2022-10-29T02:17:03.083Z,52.19
2022-10-29T02:19:33.171Z,52.03
2022-10-29T02:21:59.833Z,51.35
2022-10-29T02:24:28.592Z,51.53
2022-10-29T02:26:55.114Z,51.27
2022-10-29T02:29:21.644Z,51.38
2022-10-29T02:31:48.192Z,51.47
2022-10-29T02:34:14.786Z,51.16
2022-10-29T02:36:41.299Z,50.53
2022-10-29T02:39:07.791Z,50.43
2022-10-29T02:41:34.327Z,49.89
2022-10-29T02:44:00.893Z,50.41
2022-10-29T02:46:29.613Z,50.29
2022-10-29T02:48:56.190Z,50.18
2022-10-29T02:51:22.710Z,50.83
2022-10-29T02:53:49.195Z,50.97
2022-10-29T02:56:15.721Z,51.05
2022-10-29T02:58:42.246Z,50.68
2022-10-29T03:01:08.834Z,50.97
2022-10-29T03:03:35.745Z,50.13
2022-10-29T03:06:02.277Z,49.87
2022-10-29T03:08:31.284Z,49.96
2022-10-29T03:10:57.763Z,49.09
2022-10-29T03:13:24.359Z,48.75
2022-10-29T03:15:50.929Z,48.79
2022-10-29T03:18:17.507Z,48.64
2022-10-29T03:20:45.550Z,48.22
2022-10-29T03:23:12.082Z,48.10
2022-10-29T03:25:38.670Z,48.17
2022-10-29T03:28:05.484Z,48.00
2022-10-29T03:30:32.905Z,47.67
2022-10-29T03:33:00.611Z,47.68
2022-10-29T03:35:27.584Z,47.48
2022-10-29T03:37:54.171Z,47.54
2022-10-29T03:40:20.737Z,47.33
2022-10-29T03:42:47.281Z,46.51
2022-10-29T03:45:13.863Z,46.37
2022-10-29T03:47:40.391Z,46.56
2022-10-29T03:50:07.752Z,46.53
2022-10-29T03:52:34.283Z,46.30
2022-10-29T03:55:03.040Z,46.29
2022-10-29T03:57:29.601Z,46.45
2022-10-29T03:59:56.446Z,46.23
2022-10-29T04:02:23.728Z,46.41
2022-10-29T04:04:50.325Z,47.24
2022-10-29T04:07:17.105Z,46.86
2022-10-29T04:09:43.830Z,46.57
2022-10-29T04:12:10.410Z,46.68
2022-10-29T04:14:41.332Z,47.70
2022-10-29T04:17:12.867Z,48.90
2022-10-29T04:19:39.374Z,48.36
2022-10-29T04:30:26.055Z,49.78
2022-10-29T04:32:56.947Z,49.70
2022-10-29T04:35:24.188Z,49.68
2022-10-29T04:37:50.717Z,49.81
2022-10-29T04:40:17.267Z,49.50
2022-10-29T04:42:43.759Z,49.44
2022-10-29T04:45:10.286Z,49.93
2022-10-29T04:47:39.883Z,50.62
2022-10-29T04:50:09.593Z,51.07
2022-10-29T04:52:39.272Z,51.27
2022-10-29T04:55:08.758Z,51.51
2022-10-29T04:57:38.570Z,52.16
2022-10-29T05:00:07.684Z,52.55
2022-10-29T05:02:39.143Z,53.06
2022-10-29T05:05:09.232Z,53.31
2022-10-29T05:07:38.971Z,53.52
2022-10-29T05:10:07.756Z,53.85
2022-10-29T05:12:34.292Z,54.06
2022-10-29T05:15:00.926Z,54.21
2022-10-29T05:17:27.488Z,54.22
2022-10-29T05:19:53.994Z,53.79
2022-10-29T05:22:20.544Z,53.67
2022-10-29T05:24:47.177Z,53.45
2022-10-29T05:27:13.740Z,53.12
2022-10-29T05:29:40.276Z,52.65
2022-10-29T05:32:09.153Z,52.36
2022-10-29T05:34:37.520Z,52.12
2022-10-29T05:37:04.953Z,52.19
2022-10-29T05:39:31.436Z,52.39
2022-10-29T05:41:57.949Z,52.48
2022-10-29T05:44:24.477Z,52.39
2022-10-29T05:46:51.111Z,52.12
2022-10-29T05:49:17.676Z,51.91
2022-10-29T05:51:44.163Z,51.88
2022-10-29T05:54:10.726Z,52.05
2022-10-29T05:56:37.269Z,52.14
2022-10-29T05:59:03.788Z,52.40
2022-10-29T06:01:30.459Z,52.93
2022-10-29T06:03:57.924Z,52.84
2022-10-29T06:06:24.472Z,52.71
2022-10-29T06:08:51.040Z,52.25
2022-10-29T06:11:17.579Z,52.29
2022-10-29T06:13:44.159Z,51.77
2022-10-29T06:16:13.660Z,51.20
2022-10-29T06:18:44.090Z,50.67
2022-10-29T06:21:13.751Z,50.58
2022-10-29T06:23:41.433Z,50.51
2022-10-29T06:26:07.982Z,50.50
2022-10-29T06:28:35.122Z,49.83
2022-10-29T06:31:01.739Z,49.69
2022-10-29T06:33:28.273Z,49.98
2022-10-29T06:35:59.387Z,50.70
2022-10-29T06:38:25.946Z,50.43
2022-10-29T06:40:56.267Z,50.61
2022-10-29T06:43:22.900Z,50.79
2022-10-29T06:45:52.263Z,50.31
2022-10-29T06:48:21.982Z,50.34
2022-10-29T06:50:49.449Z,50.48
2022-10-29T06:53:16.250Z,50.25
2022-10-29T06:55:46.146Z,50.27
2022-10-29T06:58:17.873Z,50.24
2022-10-29T07:00:45.396Z,50.32
2022-10-29T07:03:16.110Z,50.24
2022-10-29T07:05:46.168Z,50.38
2022-10-29T07:08:15.573Z,50.82
2022-10-29T07:10:45.029Z,49.88
2022-10-29T07:13:19.009Z,49.57
2022-10-29T07:15:45.796Z,49.23
2022-10-29T07:18:16.736Z,49.39
2022-10-29T07:20:47.107Z,49.62
2022-10-29T07:23:17.661Z,49.23
2022-10-29T07:25:52.397Z,48.82
2022-10-29T07:28:23.905Z,47.57
2022-10-29T07:30:51.832Z,47.72
2022-10-29T07:33:19.805Z,47.58
2022-10-29T07:35:46.787Z,47.14
2022-10-29T07:38:16.902Z,45.98
2022-10-29T07:40:51.250Z,46.34
2022-10-29T07:43:19.666Z,45.36
2022-10-29T07:45:50.724Z,45.59
2022-10-29T07:48:19.380Z,45.87
2022-10-29T07:50:46.703Z,45.04
2022-10-29T07:53:14.612Z,43.62
2022-10-29T07:55:41.348Z,43.77
2022-10-29T07:58:13.600Z,43.96
2022-10-29T08:00:41.330Z,44.22
2022-10-29T08:03:08.649Z,43.97
2022-10-29T08:05:35.806Z,43.37
2022-10-29T08:08:02.696Z,42.00
2022-10-29T08:10:30.812Z,41.82
2022-10-29T08:13:01.017Z,40.30
2022-10-29T08:15:30.118Z,40.33
2022-10-29T08:17:57.248Z,38.95
2022-10-29T08:20:27.084Z,37.77
2022-10-29T08:22:53.950Z,36.76
2022-10-29T08:25:20.920Z,36.03
2022-10-29T08:28:01.370Z,34.83
2022-10-29T08:30:28.129Z,33.53
2022-10-29T08:32:55.490Z,33.16
2022-10-29T08:35:22.724Z,32.76
2022-10-29T08:37:49.443Z,31.92
2022-10-29T08:40:29.344Z,32.07
2022-10-29T08:43:32.512Z,30.75
2022-10-29T08:45:59.950Z,30.50
2022-10-29T08:48:52.109Z,28.62
2022-10-29T08:51:46.555Z,28.69
2022-10-29T08:54:35.266Z,27.78
2022-10-29T08:57:11.273Z,27.57
2022-10-29T08:59:46.197Z,26.72
2022-10-29T09:02:17.779Z,26.99
2022-10-29T09:04:47.346Z,26.65
2022-10-29T09:07:34.455Z,25.30
2022-10-29T09:10:19.138Z,25.71
2022-10-29T09:13:00.067Z,24.93
2022-10-29T09:15:56.366Z,25.07
2022-10-29T09:18:50.107Z,24.43
2022-10-29T09:21:44.482Z,25.03
2022-10-29T09:24:32.190Z,24.83
2022-10-29T09:27:01.907Z,25.54
2022-10-29T09:29:49.444Z,26.03
2022-10-29T09:32:45.810Z,26.31
2022-10-29T09:35:18.405Z,26.51
2022-10-29T09:37:53.362Z,25.50
2022-10-29T09:40:31.230Z,25.19
2022-10-29T09:43:00.589Z,24.86
2022-10-29T09:45:46.326Z,25.32
2022-10-29T09:48:27.174Z,25.89
2022-10-29T09:51:10.032Z,27.01
2022-10-29T09:53:36.789Z,27.47
2022-10-29T09:56:07.474Z,29.43
2022-10-29T09:58:38.191Z,30.60
2022-10-29T10:01:04.852Z,28.22
2022-10-29T10:03:45.643Z,27.83
2022-10-29T10:06:16.892Z,25.53
2022-10-29T10:09:06.223Z,25.31
2022-10-29T10:11:44.599Z,24.43
2022-10-29T10:14:20.986Z,23.13
2022-10-29T10:16:58.106Z,22.66
2022-10-29T10:19:27.743Z,22.70
2022-10-29T10:22:02.468Z,24.47
2022-10-29T10:24:34.431Z,24.08
2022-10-29T10:27:02.089Z,24.28
2022-10-29T10:29:28.608Z,23.69
2022-10-29T10:31:55.085Z,24.39
2022-10-29T10:34:36.685Z,24.94
2022-10-29T10:37:04.318Z,25.17
2022-10-29T10:39:36.461Z,26.06
2022-10-29T10:42:07.000Z,25.39
2022-10-29T10:44:34.956Z,25.58
2022-10-29T10:47:06.972Z,25.34
2022-10-29T10:49:37.202Z,24.23
2022-10-29T10:52:14.289Z,23.93
2022-10-29T10:55:03.130Z,24.73
2022-10-29T10:57:50.023Z,24.99
2022-10-29T11:00:20.068Z,26.05
2022-10-29T11:03:14.135Z,25.00
2022-10-29T11:05:52.027Z,24.44
2022-10-29T11:08:28.464Z,24.47
2022-10-29T11:11:04.114Z,23.26
2022-10-29T11:13:33.378Z,23.83
2022-10-29T11:16:14.205Z,24.25
2022-10-29T11:18:59.563Z,22.60
2022-10-29T11:21:46.534Z,21.44
2022-10-29T11:24:30.365Z,21.63
2022-10-29T11:27:04.528Z,21.28
2022-10-29T11:30:06.915Z,22.33
2022-10-29T11:32:50.634Z,22.20
2022-10-29T11:35:48.544Z,21.76
2022-10-29T11:38:41.433Z,22.54
2022-10-29T11:41:40.200Z,23.44
2022-10-29T11:44:12.909Z,23.11
2022-10-29T11:47:04.095Z,23.69
2022-10-29T11:49:30.563Z,23.93
2022-10-29T11:52:06.320Z,23.81
2022-10-29T11:55:04.552Z,24.55
2022-10-29T11:57:47.676Z,24.61
2022-10-29T12:00:20.136Z,24.46
2022-10-29T12:03:20.717Z,24.54
2022-10-29T12:05:56.419Z,24.24
2022-10-29T12:08:48.891Z,24.08
2022-10-29T12:11:42.055Z,24.32
2022-10-29T12:14:26.282Z,25.70
2022-10-29T12:16:58.924Z,25.96
2022-10-29T12:19:51.833Z,25.02
2022-10-29T12:22:33.424Z,25.21
2022-10-29T12:25:44.531Z,25.52
2022-10-29T12:28:29.501Z,25.63
2022-10-29T12:30:59.389Z,26.34
2022-10-29T12:33:37.887Z,25.91
2022-10-29T12:36:25.042Z,26.43
2022-10-29T12:38:55.633Z,26.15
2022-10-29T12:41:37.591Z,26.62
2022-10-29T12:44:19.215Z,26.29
2022-10-29T12:46:55.105Z,25.33
2022-10-29T12:49:35.401Z,25.53
2022-10-29T12:52:19.479Z,25.53
2022-10-29T12:54:50.525Z,25.56
2022-10-29T12:57:19.076Z,25.57
2022-10-29T12:59:45.899Z,25.91
2022-10-29T13:02:21.716Z,26.18
2022-10-29T13:05:06.724Z,27.29
2022-10-29T13:07:34.595Z,27.04
2022-10-29T13:10:26.521Z,27.28
2022-10-29T13:12:56.038Z,28.04
2022-10-29T13:15:36.325Z,27.30
2022-10-29T13:18:28.854Z,27.76
2022-10-29T13:20:55.813Z,28.20
2022-10-29T13:23:22.553Z,27.34
2022-10-29T13:25:52.739Z,26.94
2022-10-29T13:28:19.475Z,27.81
2022-10-29T13:31:13.976Z,28.58
2022-10-29T13:36:24.446Z,28.39
2022-10-29T13:39:04.571Z,29.07
2022-10-29T13:41:45.121Z,29.70
2022-10-29T13:44:14.251Z,29.40
2022-10-29T13:47:19.861Z,29.54
2022-10-29T13:49:51.716Z,29.79
2022-10-29T13:52:22.586Z,30.54
2022-10-29T13:54:56.725Z,30.97
2022-10-29T13:57:53.829Z,30.71
2022-10-29T14:00:22.181Z,30.21
2022-10-29T14:02:57.578Z,30.30
2022-10-29T14:05:33.922Z,30.52
2022-10-29T14:08:07.545Z,30.23
2022-10-29T14:10:40.249Z,30.10
2022-10-29T14:13:32.565Z,30.63
2022-10-29T14:16:06.587Z,30.23
2022-10-29T14:18:36.563Z,30.11
2022-10-29T14:21:05.886Z,30.04
2022-10-29T14:23:33.254Z,30.68
2022-10-29T14:26:03.047Z,30.27
2022-10-29T14:28:33.685Z,30.16
2022-10-29T14:31:05.138Z,30.25
2022-10-29T14:33:35.865Z,30.84
2022-10-29T14:36:21.450Z,31.50
2022-10-29T14:38:52.738Z,30.48
2022-10-29T14:41:24.647Z,30.58
2022-10-29T14:44:16.127Z,30.74
2022-10-29T14:46:44.337Z,30.31
2022-10-29T14:49:17.621Z,29.90
2022-10-29T14:52:04.997Z,29.60
2022-10-29T14:54:35.637Z,29.01
2022-10-29T14:57:07.745Z,28.87
2022-10-29T14:59:35.734Z,29.30
2022-10-29T15:02:36.220Z,29.09
2022-10-29T15:05:01.713Z,28.74
2022-10-29T15:07:37.110Z,29.04
2022-10-29T15:10:09.697Z,29.04
2022-10-29T15:12:40.238Z,29.46
2022-10-29T15:15:19.124Z,28.77
2022-10-29T15:18:06.634Z,29.36
2022-10-29T15:20:39.159Z,28.27
2022-10-29T15:23:06.405Z,29.03
2022-10-29T15:25:36.787Z,29.08
2022-10-29T15:28:04.282Z,28.78
2022-10-29T15:30:36.558Z,28.34
2022-10-29T15:33:08.862Z,28.15
2022-10-29T15:35:36.593Z,28.78
2022-10-29T15:38:03.944Z,28.32
2022-10-29T15:40:30.794Z,28.02
2022-10-29T15:43:30.105Z,28.09
2022-10-29T15:45:58.232Z,28.09
2022-10-29T15:48:36.226Z,28.28
2022-10-29T15:51:04.153Z,28.19
2022-10-29T15:53:30.687Z,28.22
2022-10-29T15:55:58.203Z,27.78
2022-10-29T15:58:27.721Z,27.73
2022-10-29T16:00:57.322Z,27.89
2022-10-29T16:03:27.334Z,28.32
2022-10-29T16:05:56.633Z,27.77
2022-10-29T16:08:28.746Z,27.94
2022-10-29T16:11:00.308Z,28.34
2022-10-29T16:13:28.756Z,28.14
2022-10-29T16:15:56.059Z,28.06
2022-10-29T16:18:22.567Z,28.51
2022-10-29T16:20:51.971Z,28.56
2022-10-29T16:23:18.461Z,28.40
2022-10-29T16:25:44.962Z,28.32
2022-10-29T16:28:11.506Z,28.82
2022-10-29T16:33:04.993Z,28.81
2022-10-29T16:35:31.780Z,28.71
2022-10-29T16:37:58.429Z,28.32
2022-10-29T16:40:29.833Z,28.65
2022-10-29T16:42:57.433Z,28.79
2022-10-29T16:45:26.746Z,28.41
2022-10-29T16:47:54.423Z,28.66
2022-10-29T16:50:24.589Z,29.15
2022-10-29T16:52:58.494Z,29.52
2022-10-29T16:55:26.066Z,29.36
2022-10-29T16:57:52.876Z,29.43
2022-10-29T17:00:19.410Z,29.55
2022-10-29T17:02:45.927Z,29.54
2022-10-29T17:05:13.447Z,29.38
2022-10-29T17:07:40.218Z,29.90
2022-10-29T17:10:07.963Z,31.22
2022-10-29T17:12:35.451Z,30.33
2022-10-29T17:15:02.587Z,30.18
2022-10-29T17:17:32.673Z,30.03
2022-10-29T17:19:59.596Z,30.17
2022-10-29T17:22:28.604Z,30.13
2022-10-29T17:24:55.282Z,30.57
2022-10-29T17:27:25.278Z,30.57
2022-10-29T17:29:51.978Z,30.47
2022-10-29T17:32:40.482Z,30.74
2022-10-29T17:35:07.320Z,30.76
2022-10-29T17:37:34.446Z,30.85
2022-10-29T17:40:03.344Z,30.79
2022-10-29T17:42:33.894Z,31.21
2022-10-29T17:45:00.684Z,31.06
2022-10-29T17:47:30.634Z,31.04
2022-10-29T17:49:59.262Z,30.74
2022-10-29T17:52:33.122Z,31.58
2022-10-29T17:55:34.592Z,31.29
2022-10-29T17:58:06.010Z,31.34
2022-10-29T18:00:32.826Z,31.33
2022-10-29T18:03:02.835Z,31.23
2022-10-29T18:05:30.858Z,31.66
2022-10-29T18:07:59.792Z,31.83
2022-10-29T18:10:26.757Z,31.76
2022-10-29T18:12:53.772Z,31.70
2022-10-29T18:15:20.645Z,31.65
2022-10-29T18:17:50.285Z,31.65
2022-10-29T18:20:17.244Z,31.69
2022-10-29T18:22:44.608Z,31.48
2022-10-29T18:25:11.967Z,31.73
2022-10-29T18:28:02.295Z,31.57
2022-10-29T18:30:33.335Z,31.55
2022-10-29T18:33:18.156Z,31.90
2022-10-29T18:35:44.796Z,32.05
2022-10-29T18:38:11.319Z,31.93
2022-10-29T18:40:40.453Z,31.60
2022-10-29T18:43:07.092Z,31.21
2022-10-29T18:45:33.650Z,32.09
2022-10-29T18:48:03.537Z,31.16
2022-10-29T18:50:32.019Z,31.30
2022-10-29T18:52:59.011Z,31.14
2022-10-29T18:55:26.112Z,31.14
2022-10-29T18:57:52.640Z,31.53
2022-10-29T19:00:19.232Z,31.54
2022-10-29T19:02:45.779Z,31.81
2022-10-29T19:05:12.374Z,31.61
2022-10-29T19:07:38.945Z,31.72
2022-10-29T19:10:05.917Z,32.16
2022-10-29T19:12:35.505Z,32.11
2022-10-29T19:15:05.541Z,31.65
2022-10-29T19:17:34.697Z,31.96
2022-10-29T19:20:04.717Z,31.58
2022-10-29T19:22:34.007Z,31.60
2022-10-29T19:25:02.935Z,31.95
2022-10-29T19:27:32.600Z,31.36
2022-10-29T19:29:59.150Z,31.50
2022-10-29T19:32:25.718Z,31.33
2022-10-29T19:34:52.496Z,31.90
2022-10-29T19:37:19.066Z,31.56
2022-10-29T19:39:45.600Z,31.41
2022-10-29T19:42:12.098Z,31.09
2022-10-29T19:44:38.598Z,31.27
2022-10-29T19:47:05.176Z,31.11
2022-10-29T19:49:34.496Z,31.09
2022-10-29T19:52:04.125Z,31.19
2022-10-29T19:54:34.896Z,30.99
2022-10-29T19:57:04.353Z,30.95
2022-10-29T19:59:33.985Z,31.21
2022-10-29T20:02:02.678Z,30.94
2022-10-29T20:04:29.261Z,30.77
2022-10-29T20:06:55.743Z,31.35
2022-10-29T20:09:22.357Z,31.22
2022-10-29T20:11:48.878Z,31.11
2022-10-29T20:14:15.396Z,30.88
2022-10-29T20:16:41.883Z,31.26
2022-10-29T20:19:08.847Z,31.19
2022-10-29T20:21:35.353Z,31.23
2022-10-29T20:24:04.907Z,31.34
2022-10-29T20:26:36.696Z,31.15
2022-10-29T20:29:06.049Z,31.36
2022-10-29T20:31:41.137Z,31.48
2022-10-29T20:34:09.531Z,31.44
2022-10-29T20:36:36.139Z,31.43
2022-10-29T20:39:05.595Z,31.75
2022-10-29T20:41:35.033Z,31.93
2022-10-29T20:44:04.103Z,31.65
2022-10-29T20:46:30.678Z,31.86
2022-10-29T20:48:57.294Z,31.75
2022-10-29T20:51:24.746Z,32.12
2022-10-29T20:53:52.524Z,32.08
2022-10-29T20:56:20.843Z,32.35
2022-10-29T20:58:47.385Z,32.11
2022-10-29T21:01:16.452Z,32.29
2022-10-29T21:03:43.804Z,32.37
2022-10-29T21:06:15.771Z,31.67
2022-10-29T21:08:43.474Z,32.32
2022-10-29T21:11:12.622Z,32.12
2022-10-29T21:13:39.152Z,32.65
2022-10-29T21:16:14.674Z,33.12
2022-10-29T21:18:42.490Z,33.58
2022-10-29T21:21:09.774Z,32.99
2022-10-29T21:23:39.436Z,32.95
2022-10-29T21:26:14.309Z,33.20
2022-10-29T21:28:41.060Z,33.28
2022-10-29T21:31:07.794Z,33.44
2022-10-29T21:33:37.641Z,33.49
2022-10-29T21:36:06.958Z,33.37
2022-10-29T21:38:36.243Z,32.82
2022-10-29T21:41:02.775Z,32.59
2022-10-29T21:43:29.407Z,32.47
2022-10-29T21:45:56.409Z,32.56
2022-10-29T21:48:25.643Z,32.87
2022-10-29T21:51:02.473Z,32.76
2022-10-29T21:53:29.518Z,32.96
2022-10-29T21:55:57.791Z,33.05
2022-10-29T21:58:24.647Z,33.17
2022-10-29T22:00:51.615Z,33.31
2022-10-29T22:03:18.578Z,33.34
2022-10-29T22:05:45.141Z,33.78
2022-10-29T22:08:11.669Z,34.12
2022-10-29T22:10:47.256Z,34.06
2022-10-29T22:13:14.588Z,34.04
2022-10-29T22:15:44.784Z,33.88
2022-10-29T22:18:11.234Z,34.37
2022-10-29T22:20:40.687Z,34.53
2022-10-29T22:23:10.090Z,34.42
2022-10-29T22:25:38.907Z,34.14
2022-10-29T22:28:05.439Z,34.01
2022-10-29T22:30:31.961Z,34.20
2022-10-29T22:32:58.425Z,34.23
2022-10-29T22:35:24.870Z,34.30
2022-10-29T22:37:53.505Z,34.88
2022-10-29T22:40:20.057Z,34.73
2022-10-29T22:42:46.541Z,35.12
2022-10-29T22:45:13.098Z,34.97
2022-10-29T22:47:40.983Z,35.21
2022-10-29T22:50:10.101Z,35.40
2022-10-29T22:52:36.689Z,35.59
2022-10-29T22:55:03.528Z,35.95
2022-10-29T22:57:30.037Z,35.11
2022-10-29T22:59:56.600Z,35.21
2022-10-29T23:02:23.161Z,35.07
2022-10-29T23:04:49.719Z,35.27
2022-10-29T23:07:16.272Z,34.68
2022-10-29T23:09:42.755Z,34.85
2022-10-29T23:12:11.339Z,34.74
2022-10-29T23:14:37.845Z,34.36
2022-10-29T23:17:04.377Z,33.79
2022-10-29T23:19:30.983Z,33.89
2022-10-29T23:21:57.542Z,33.64
2022-10-29T23:24:24.083Z,33.21
2022-10-29T23:26:50.643Z,32.86
2022-10-29T23:29:17.144Z,33.15
2022-10-29T23:31:43.664Z,33.29
2022-10-29T23:34:14.359Z,32.89
2022-10-29T23:36:42.996Z,33.27
2022-10-29T23:39:09.719Z,33.18
2022-10-29T23:41:36.210Z,33.42
2022-10-29T23:44:02.755Z,33.68
2022-10-29T23:46:29.270Z,33.67
2022-10-29T23:48:55.900Z,33.45
2022-10-29T23:51:22.558Z,33.33
2022-10-29T23:53:51.676Z,32.94
2022-10-29T23:56:21.357Z,33.09
2022-10-29T23:58:47.944Z,33.36
